sensor_id;sensor_type;location;lat;lon;timestamp;P1;durP1;ratioP1;P2;durP2;ratioP2
51949;SDS011;37974;53.218;6.640;2022-07-03T00:01:58;15.43;;;10.13;;
51949;SDS011;37974;53.218;6.640;2022-07-03T00:04:24;10.75;;;4.63;;
51949;SDS011;37974;53.218;6.640;2022-07-03T00:06:50;10.48;;;3.35;;
51949;SDS011;37974;53.218;6.640;2022-07-03T00:09:19;5.68;;;2.58;;
51949;SDS011;37974;53.218;6.640;2022-07-03T00:11:44;7.28;;;2.70;;
51949;SDS011;37974;53.218;6.640;2022-07-03T00:14:10;5.18;;;2.35;;
51949;SDS011;37974;53.218;6.640;2022-07-03T00:16:36;5.45;;;1.90;;
51949;SDS011;37974;53.218;6.640;2022-07-03T00:19:02;7.47;;;1.98;;
51949;SDS011;37974;53.218;6.640;2022-07-03T00:21:29;6.32;;;1.75;;
51949;SDS011;37974;53.218;6.640;2022-07-03T00:24:03;5.05;;;2.10;;
51949;SDS011;37974;53.218;6.640;2022-07-03T00:26:34;3.85;;;1.70;;
51949;SDS011;37974;53.218;6.640;2022-07-03T00:29:02;5.28;;;2.30;;
51949;SDS011;37974;53.218;6.640;2022-07-03T00:31:29;6.50;;;1.92;;
51949;SDS011;37974;53.218;6.640;2022-07-03T00:33:59;7.93;;;2.15;;
51949;SDS011;37974;53.218;6.640;2022-07-03T00:36:40;8.30;;;1.92;;
51949;SDS011;37974;53.218;6.640;2022-07-03T00:39:06;5.07;;;2.13;;
51949;SDS011;37974;53.218;6.640;2022-07-03T00:41:32;4.82;;;1.92;;
51949;SDS011;37974;53.218;6.640;2022-07-03T00:44:00;7.03;;;2.40;;
51949;SDS011;37974;53.218;6.640;2022-07-03T00:46:27;4.03;;;2.30;;
51949;SDS011;37974;53.218;6.640;2022-07-03T00:48:53;7.20;;;2.50;;
51949;SDS011;37974;53.218;6.640;2022-07-03T00:51:21;6.90;;;2.30;;
51949;SDS011;37974;53.218;6.640;2022-07-03T00:53:51;9.18;;;2.35;;
51949;SDS011;37974;53.218;6.640;2022-07-03T00:56:21;4.90;;;2.30;;
51949;SDS011;37974;53.218;6.640;2022-07-03T00:58:51;6.85;;;2.30;;
51949;SDS011;37974;53.218;6.640;2022-07-03T01:01:19;8.40;;;2.70;;
51949;SDS011;37974;53.218;6.640;2022-07-03T01:03:45;4.07;;;2.28;;
51949;SDS011;37974;53.218;6.640;2022-07-03T01:06:13;6.50;;;2.58;;
51949;SDS011;37974;53.218;6.640;2022-07-03T01:08:42;4.93;;;2.42;;
51949;SDS011;37974;53.218;6.640;2022-07-03T01:11:32;5.20;;;2.40;;
51949;SDS011;37974;53.218;6.640;2022-07-03T01:14:14;7.30;;;3.00;;
51949;SDS011;37974;53.218;6.640;2022-07-03T01:16:58;5.75;;;2.95;;
51949;SDS011;37974;53.218;6.640;2022-07-03T01:19:37;5.88;;;2.55;;
51949;SDS011;37974;53.218;6.640;2022-07-03T01:27:16;6.15;;;3.05;;
51949;SDS011;37974;53.218;6.640;2022-07-03T01:29:52;6.47;;;3.00;;
51949;SDS011;37974;53.218;6.640;2022-07-03T01:32:33;8.15;;;2.50;;
51949;SDS011;37974;53.218;6.640;2022-07-03T01:35:06;6.38;;;3.55;;
51949;SDS011;37974;53.218;6.640;2022-07-03T01:37:34;5.30;;;3.13;;
51949;SDS011;37974;53.218;6.640;2022-07-03T01:40:03;6.65;;;3.58;;
51949;SDS011;37974;53.218;6.640;2022-07-03T01:42:32;9.85;;;3.53;;
51949;SDS011;37974;53.218;6.640;2022-07-03T01:44:59;10.88;;;3.65;;
51949;SDS011;37974;53.218;6.640;2022-07-03T01:47:26;7.28;;;4.32;;
51949;SDS011;37974;53.218;6.640;2022-07-03T01:49:53;10.70;;;3.90;;
51949;SDS011;37974;53.218;6.640;2022-07-03T01:52:20;8.45;;;3.88;;
51949;SDS011;37974;53.218;6.640;2022-07-03T01:54:46;6.38;;;3.70;;
51949;SDS011;37974;53.218;6.640;2022-07-03T01:57:13;8.63;;;3.88;;
51949;SDS011;37974;53.218;6.640;2022-07-03T01:59:39;7.30;;;3.90;;
51949;SDS011;37974;53.218;6.640;2022-07-03T02:04:44;6.50;;;3.63;;
51949;SDS011;37974;53.218;6.640;2022-07-03T02:07:36;7.90;;;4.30;;
51949;SDS011;37974;53.218;6.640;2022-07-03T02:10:11;13.50;;;6.80;;
51949;SDS011;37974;53.218;6.640;2022-07-03T02:15:28;19.52;;;11.50;;
51949;SDS011;37974;53.218;6.640;2022-07-03T02:17:56;14.40;;;9.73;;
51949;SDS011;37974;53.218;6.640;2022-07-03T02:20:25;10.85;;;6.32;;
51949;SDS011;37974;53.218;6.640;2022-07-03T02:22:57;5.35;;;3.60;;
51949;SDS011;37974;53.218;6.640;2022-07-03T02:25:28;4.90;;;3.65;;
51949;SDS011;37974;53.218;6.640;2022-07-03T02:27:57;6.25;;;4.18;;
51949;SDS011;37974;53.218;6.640;2022-07-03T02:30:36;5.43;;;3.20;;
51949;SDS011;37974;53.218;6.640;2022-07-03T02:33:09;6.60;;;4.15;;
51949;SDS011;37974;53.218;6.640;2022-07-03T02:35:36;4.43;;;3.30;;
51949;SDS011;37974;53.218;6.640;2022-07-03T02:43:21;3.30;;;2.28;;
51949;SDS011;37974;53.218;6.640;2022-07-03T02:45:57;4.35;;;1.98;;
51949;SDS011;37974;53.218;6.640;2022-07-03T02:48:50;7.22;;;2.00;;
51949;SDS011;37974;53.218;6.640;2022-07-03T02:51:20;3.33;;;2.10;;
51949;SDS011;37974;53.218;6.640;2022-07-03T02:53:53;6.38;;;3.60;;
51949;SDS011;37974;53.218;6.640;2022-07-03T02:56:32;5.55;;;3.90;;
51949;SDS011;37974;53.218;6.640;2022-07-03T02:59:16;6.45;;;4.40;;
51949;SDS011;37974;53.218;6.640;2022-07-03T03:01:58;6.03;;;4.20;;
51949;SDS011;37974;53.218;6.640;2022-07-03T03:04:32;8.85;;;5.22;;
51949;SDS011;37974;53.218;6.640;2022-07-03T03:07:01;7.82;;;4.63;;
51949;SDS011;37974;53.218;6.640;2022-07-03T03:09:40;9.35;;;4.78;;
51949;SDS011;37974;53.218;6.640;2022-07-03T03:12:07;10.02;;;4.90;;
51949;SDS011;37974;53.218;6.640;2022-07-03T03:14:40;7.50;;;4.80;;
51949;SDS011;37974;53.218;6.640;2022-07-03T03:17:08;13.20;;;4.82;;
51949;SDS011;37974;53.218;6.640;2022-07-03T03:19:40;7.18;;;4.65;;
51949;SDS011;37974;53.218;6.640;2022-07-03T03:22:10;7.07;;;3.90;;
51949;SDS011;37974;53.218;6.640;2022-07-03T03:24:49;9.30;;;4.63;;
51949;SDS011;37974;53.218;6.640;2022-07-03T03:27:16;9.80;;;4.38;;
51949;SDS011;37974;53.218;6.640;2022-07-03T03:29:42;5.53;;;4.18;;
51949;SDS011;37974;53.218;6.640;2022-07-03T03:32:08;11.98;;;3.80;;
51949;SDS011;37974;53.218;6.640;2022-07-03T03:34:36;5.90;;;4.00;;
51949;SDS011;37974;53.218;6.640;2022-07-03T03:37:02;7.43;;;4.32;;
51949;SDS011;37974;53.218;6.640;2022-07-03T03:39:28;7.25;;;4.20;;
51949;SDS011;37974;53.218;6.640;2022-07-03T03:41:55;7.45;;;4.30;;
51949;SDS011;37974;53.218;6.640;2022-07-03T03:44:21;11.88;;;3.92;;
51949;SDS011;37974;53.218;6.640;2022-07-03T03:46:47;6.10;;;4.07;;
51949;SDS011;37974;53.218;6.640;2022-07-03T03:49:12;9.07;;;3.92;;
51949;SDS011;37974;53.218;6.640;2022-07-03T03:51:39;6.35;;;3.95;;
51949;SDS011;37974;53.218;6.640;2022-07-03T03:54:05;9.48;;;3.97;;
51949;SDS011;37974;53.218;6.640;2022-07-03T03:56:30;6.68;;;4.05;;
51949;SDS011;37974;53.218;6.640;2022-07-03T03:58:56;5.65;;;3.65;;
51949;SDS011;37974;53.218;6.640;2022-07-03T04:01:22;5.50;;;3.50;;
51949;SDS011;37974;53.218;6.640;2022-07-03T04:03:47;5.90;;;3.53;;
51949;SDS011;37974;53.218;6.640;2022-07-03T04:06:13;9.00;;;3.90;;
51949;SDS011;37974;53.218;6.640;2022-07-03T04:08:39;16.77;;;4.95;;
51949;SDS011;37974;53.218;6.640;2022-07-03T04:11:04;12.63;;;4.43;;
51949;SDS011;37974;53.218;6.640;2022-07-03T04:13:30;5.20;;;3.72;;
51949;SDS011;37974;53.218;6.640;2022-07-03T04:15:56;5.93;;;3.95;;
51949;SDS011;37974;53.218;6.640;2022-07-03T04:18:22;7.15;;;3.63;;
51949;SDS011;37974;53.218;6.640;2022-07-03T04:20:48;8.02;;;4.20;;
51949;SDS011;37974;53.218;6.640;2022-07-03T04:23:14;5.82;;;3.95;;
51949;SDS011;37974;53.218;6.640;2022-07-03T04:25:40;7.95;;;4.03;;
51949;SDS011;37974;53.218;6.640;2022-07-03T04:28:06;6.20;;;3.70;;
51949;SDS011;37974;53.218;6.640;2022-07-03T04:30:31;6.30;;;4.00;;
51949;SDS011;37974;53.218;6.640;2022-07-03T04:32:57;8.05;;;4.47;;
51949;SDS011;37974;53.218;6.640;2022-07-03T04:35:23;7.65;;;3.90;;
51949;SDS011;37974;53.218;6.640;2022-07-03T04:37:49;7.40;;;4.03;;
51949;SDS011;37974;53.218;6.640;2022-07-03T04:40:14;8.60;;;4.85;;
51949;SDS011;37974;53.218;6.640;2022-07-03T04:42:40;8.00;;;4.57;;
51949;SDS011;37974;53.218;6.640;2022-07-03T04:45:06;9.02;;;4.88;;
51949;SDS011;37974;53.218;6.640;2022-07-03T04:47:32;6.63;;;4.10;;
51949;SDS011;37974;53.218;6.640;2022-07-03T04:49:58;10.40;;;4.75;;
51949;SDS011;37974;53.218;6.640;2022-07-03T04:52:24;8.30;;;4.78;;
51949;SDS011;37974;53.218;6.640;2022-07-03T04:54:49;7.90;;;4.65;;
51949;SDS011;37974;53.218;6.640;2022-07-03T04:57:15;7.15;;;5.07;;
51949;SDS011;37974;53.218;6.640;2022-07-03T04:59:41;7.10;;;4.40;;
51949;SDS011;37974;53.218;6.640;2022-07-03T05:02:07;5.82;;;4.82;;
51949;SDS011;37974;53.218;6.640;2022-07-03T05:04:32;8.98;;;5.38;;
51949;SDS011;37974;53.218;6.640;2022-07-03T05:06:58;7.68;;;4.88;;
51949;SDS011;37974;53.218;6.640;2022-07-03T05:09:24;8.30;;;4.95;;
51949;SDS011;37974;53.218;6.640;2022-07-03T05:11:50;11.00;;;5.78;;
51949;SDS011;37974;53.218;6.640;2022-07-03T05:14:16;9.68;;;4.88;;
51949;SDS011;37974;53.218;6.640;2022-07-03T05:16:42;7.68;;;4.80;;
51949;SDS011;37974;53.218;6.640;2022-07-03T05:19:08;7.70;;;4.80;;
51949;SDS011;37974;53.218;6.640;2022-07-03T05:21:33;10.50;;;5.65;;
51949;SDS011;37974;53.218;6.640;2022-07-03T05:23:59;11.65;;;5.90;;
51949;SDS011;37974;53.218;6.640;2022-07-03T05:26:25;13.18;;;7.07;;
51949;SDS011;37974;53.218;6.640;2022-07-03T05:28:50;10.07;;;7.00;;
51949;SDS011;37974;53.218;6.640;2022-07-03T05:31:16;11.13;;;7.03;;
51949;SDS011;37974;53.218;6.640;2022-07-03T05:33:42;8.98;;;5.78;;
51949;SDS011;37974;53.218;6.640;2022-07-03T05:36:08;8.05;;;5.10;;
51949;SDS011;37974;53.218;6.640;2022-07-03T05:38:33;9.57;;;5.22;;
51949;SDS011;37974;53.218;6.640;2022-07-03T05:41:18;7.93;;;5.20;;
51949;SDS011;37974;53.218;6.640;2022-07-03T05:43:44;10.10;;;5.20;;
51949;SDS011;37974;53.218;6.640;2022-07-03T05:46:10;10.48;;;4.40;;
51949;SDS011;37974;53.218;6.640;2022-07-03T05:48:35;9.55;;;4.25;;
51949;SDS011;37974;53.218;6.640;2022-07-03T05:51:01;6.30;;;4.00;;
51949;SDS011;37974;53.218;6.640;2022-07-03T05:53:27;9.55;;;4.15;;
51949;SDS011;37974;53.218;6.640;2022-07-03T05:55:53;5.47;;;3.42;;
51949;SDS011;37974;53.218;6.640;2022-07-03T05:58:19;3.03;;;1.67;;
51949;SDS011;37974;53.218;6.640;2022-07-03T06:00:45;3.88;;;1.20;;
51949;SDS011;37974;53.218;6.640;2022-07-03T06:03:11;5.25;;;1.05;;
51949;SDS011;37974;53.218;6.640;2022-07-03T06:05:37;3.65;;;0.95;;
51949;SDS011;37974;53.218;6.640;2022-07-03T06:08:03;6.47;;;1.10;;
51949;SDS011;37974;53.218;6.640;2022-07-03T06:10:30;4.28;;;1.00;;
51949;SDS011;37974;53.218;6.640;2022-07-03T06:12:56;6.28;;;1.10;;
51949;SDS011;37974;53.218;6.640;2022-07-03T06:15:23;3.53;;;0.90;;
51949;SDS011;37974;53.218;6.640;2022-07-03T06:17:49;4.18;;;0.82;;
51949;SDS011;37974;53.218;6.640;2022-07-03T06:20:15;3.55;;;0.80;;
51949;SDS011;37974;53.218;6.640;2022-07-03T06:22:40;13.68;;;1.20;;
51949;SDS011;37974;53.218;6.640;2022-07-03T06:25:06;10.23;;;1.27;;
51949;SDS011;37974;53.218;6.640;2022-07-03T06:27:32;8.10;;;1.23;;
51949;SDS011;37974;53.218;6.640;2022-07-03T06:29:58;5.10;;;1.15;;
51949;SDS011;37974;53.218;6.640;2022-07-03T06:32:27;4.97;;;1.25;;
51949;SDS011;37974;53.218;6.640;2022-07-03T06:34:53;3.92;;;1.08;;
51949;SDS011;37974;53.218;6.640;2022-07-03T06:37:20;2.67;;;1.05;;
51949;SDS011;37974;53.218;6.640;2022-07-03T06:39:46;6.97;;;0.93;;
51949;SDS011;37974;53.218;6.640;2022-07-03T06:42:12;1.45;;;0.68;;
51949;SDS011;37974;53.218;6.640;2022-07-03T06:44:38;4.72;;;1.00;;
51949;SDS011;37974;53.218;6.640;2022-07-03T06:47:05;3.83;;;0.88;;
51949;SDS011;37974;53.218;6.640;2022-07-03T06:49:32;3.67;;;0.80;;
51949;SDS011;37974;53.218;6.640;2022-07-03T06:51:58;3.30;;;0.70;;
51949;SDS011;37974;53.218;6.640;2022-07-03T06:54:24;3.47;;;0.80;;
51949;SDS011;37974;53.218;6.640;2022-07-03T06:56:50;2.58;;;0.70;;
51949;SDS011;37974;53.218;6.640;2022-07-03T06:59:16;3.17;;;0.77;;
51949;SDS011;37974;53.218;6.640;2022-07-03T07:01:42;3.65;;;0.80;;
51949;SDS011;37974;53.218;6.640;2022-07-03T07:04:07;7.50;;;0.88;;
51949;SDS011;37974;53.218;6.640;2022-07-03T07:06:33;3.78;;;0.80;;
51949;SDS011;37974;53.218;6.640;2022-07-03T07:09:00;3.42;;;0.98;;
51949;SDS011;37974;53.218;6.640;2022-07-03T07:11:25;4.18;;;0.80;;
51949;SDS011;37974;53.218;6.640;2022-07-03T07:13:51;4.40;;;1.05;;
51949;SDS011;37974;53.218;6.640;2022-07-03T07:16:17;13.98;;;0.95;;
51949;SDS011;37974;53.218;6.640;2022-07-03T07:18:43;6.75;;;1.00;;
51949;SDS011;37974;53.218;6.640;2022-07-03T07:21:09;7.03;;;1.00;;
51949;SDS011;37974;53.218;6.640;2022-07-03T07:23:35;2.67;;;0.85;;
51949;SDS011;37974;53.218;6.640;2022-07-03T07:28:30;5.15;;;1.05;;
51949;SDS011;37974;53.218;6.640;2022-07-03T07:30:58;3.58;;;0.70;;
51949;SDS011;37974;53.218;6.640;2022-07-03T07:33:24;5.85;;;0.90;;
51949;SDS011;37974;53.218;6.640;2022-07-03T07:35:50;8.93;;;2.00;;
51949;SDS011;37974;53.218;6.640;2022-07-03T07:38:58;11.50;;;1.48;;
51949;SDS011;37974;53.218;6.640;2022-07-03T07:41:19;6.90;;;0.80;;
51949;SDS011;37974;53.218;6.640;2022-07-03T07:44:06;3.75;;;1.10;;
51949;SDS011;37974;53.218;6.640;2022-07-03T07:46:32;6.50;;;0.98;;
51949;SDS011;37974;53.218;6.640;2022-07-03T07:48:58;4.20;;;1.10;;
51949;SDS011;37974;53.218;6.640;2022-07-03T07:51:23;6.05;;;0.90;;
51949;SDS011;37974;53.218;6.640;2022-07-03T07:53:49;3.30;;;1.10;;
51949;SDS011;37974;53.218;6.640;2022-07-03T07:56:17;6.18;;;1.02;;
51949;SDS011;37974;53.218;6.640;2022-07-03T07:58:43;3.58;;;0.90;;
51949;SDS011;37974;53.218;6.640;2022-07-03T08:01:09;4.15;;;0.82;;
51949;SDS011;37974;53.218;6.640;2022-07-03T08:03:53;2.70;;;0.80;;
51949;SDS011;37974;53.218;6.640;2022-07-03T08:06:37;3.60;;;0.90;;
51949;SDS011;37974;53.218;6.640;2022-07-03T08:09:03;4.97;;;0.95;;
51949;SDS011;37974;53.218;6.640;2022-07-03T08:11:28;6.28;;;0.70;;
51949;SDS011;37974;53.218;6.640;2022-07-03T08:13:54;4.50;;;0.73;;
51949;SDS011;37974;53.218;6.640;2022-07-03T08:16:20;3.83;;;1.08;;
51949;SDS011;37974;53.218;6.640;2022-07-03T08:18:45;2.35;;;1.00;;
51949;SDS011;37974;53.218;6.640;2022-07-03T08:21:11;5.38;;;1.38;;
51949;SDS011;37974;53.218;6.640;2022-07-03T08:23:37;5.25;;;0.98;;
51949;SDS011;37974;53.218;6.640;2022-07-03T08:26:03;3.40;;;1.05;;
51949;SDS011;37974;53.218;6.640;2022-07-03T08:28:29;3.60;;;0.80;;
51949;SDS011;37974;53.218;6.640;2022-07-03T08:30:55;4.50;;;1.00;;
51949;SDS011;37974;53.218;6.640;2022-07-03T08:33:21;6.35;;;0.70;;
51949;SDS011;37974;53.218;6.640;2022-07-03T08:35:46;5.35;;;1.10;;
51949;SDS011;37974;53.218;6.640;2022-07-03T08:38:12;3.58;;;1.20;;
51949;SDS011;37974;53.218;6.640;2022-07-03T08:40:38;4.10;;;0.80;;
51949;SDS011;37974;53.218;6.640;2022-07-03T08:43:05;3.95;;;0.60;;
51949;SDS011;37974;53.218;6.640;2022-07-03T08:45:33;3.70;;;0.90;;
51949;SDS011;37974;53.218;6.640;2022-07-03T08:47:59;4.47;;;0.90;;
51949;SDS011;37974;53.218;6.640;2022-07-03T08:50:27;3.53;;;0.80;;
51949;SDS011;37974;53.218;6.640;2022-07-03T08:52:53;4.05;;;0.77;;
51949;SDS011;37974;53.218;6.640;2022-07-03T08:55:19;4.22;;;0.80;;
51949;SDS011;37974;53.218;6.640;2022-07-03T08:57:45;2.88;;;0.47;;
51949;SDS011;37974;53.218;6.640;2022-07-03T09:00:14;7.63;;;0.80;;
51949;SDS011;37974;53.218;6.640;2022-07-03T09:02:42;1.88;;;0.57;;
51949;SDS011;37974;53.218;6.640;2022-07-03T09:05:11;5.53;;;0.85;;
51949;SDS011;37974;53.218;6.640;2022-07-03T09:07:39;2.17;;;0.50;;
51949;SDS011;37974;53.218;6.640;2022-07-03T09:10:07;2.10;;;0.70;;
51949;SDS011;37974;53.218;6.640;2022-07-03T09:12:35;2.42;;;0.32;;
51949;SDS011;37974;53.218;6.640;2022-07-03T09:15:02;5.78;;;0.47;;
51949;SDS011;37974;53.218;6.640;2022-07-03T09:17:30;3.30;;;0.40;;
51949;SDS011;37974;53.218;6.640;2022-07-03T09:19:58;4.25;;;0.63;;
51949;SDS011;37974;53.218;6.640;2022-07-03T09:22:27;4.88;;;0.77;;
51949;SDS011;37974;53.218;6.640;2022-07-03T09:24:54;2.80;;;0.50;;
51949;SDS011;37974;53.218;6.640;2022-07-03T09:27:33;2.90;;;0.40;;
51949;SDS011;37974;53.218;6.640;2022-07-03T09:30:00;5.32;;;0.38;;
51949;SDS011;37974;53.218;6.640;2022-07-03T09:35:19;3.67;;;0.38;;
51949;SDS011;37974;53.218;6.640;2022-07-03T09:37:52;2.17;;;0.43;;
51949;SDS011;37974;53.218;6.640;2022-07-03T09:40:24;2.25;;;0.40;;
51949;SDS011;37974;53.218;6.640;2022-07-03T09:48:21;1.60;;;0.30;;
51949;SDS011;37974;53.218;6.640;2022-07-03T09:50:48;2.25;;;0.30;;
51949;SDS011;37974;53.218;6.640;2022-07-03T09:53:14;1.05;;;0.20;;
51949;SDS011;37974;53.218;6.640;2022-07-03T09:55:39;3.42;;;0.50;;
51949;SDS011;37974;53.218;6.640;2022-07-03T09:58:06;2.40;;;0.70;;
51949;SDS011;37974;53.218;6.640;2022-07-03T10:00:32;5.85;;;0.45;;
51949;SDS011;37974;53.218;6.640;2022-07-03T10:03:00;1.20;;;0.30;;
51949;SDS011;37974;53.218;6.640;2022-07-03T10:05:30;1.67;;;0.28;;
51949;SDS011;37974;53.218;6.640;2022-07-03T10:10:51;2.03;;;0.35;;
51949;SDS011;37974;53.218;6.640;2022-07-03T10:13:29;2.45;;;0.30;;
51949;SDS011;37974;53.218;6.640;2022-07-03T10:16:07;3.33;;;0.50;;
51949;SDS011;37974;53.218;6.640;2022-07-03T10:18:42;2.95;;;0.63;;
51949;SDS011;37974;53.218;6.640;2022-07-03T10:21:13;1.75;;;0.40;;
51949;SDS011;37974;53.218;6.640;2022-07-03T10:23:46;3.08;;;0.35;;
51949;SDS011;37974;53.218;6.640;2022-07-03T10:26:34;3.00;;;0.52;;
51949;SDS011;37974;53.218;6.640;2022-07-03T10:29:01;4.88;;;0.45;;
51949;SDS011;37974;53.218;6.640;2022-07-03T10:31:27;3.70;;;0.55;;
51949;SDS011;37974;53.218;6.640;2022-07-03T10:36:44;3.17;;;0.43;;
51949;SDS011;37974;53.218;6.640;2022-07-03T10:39:44;2.05;;;0.50;;
51949;SDS011;37974;53.218;6.640;2022-07-03T10:43:09;3.05;;;0.47;;
51949;SDS011;37974;53.218;6.640;2022-07-03T10:46:21;4.60;;;0.55;;
51949;SDS011;37974;53.218;6.640;2022-07-03T10:54:11;2.50;;;0.50;;
51949;SDS011;37974;53.218;6.640;2022-07-03T11:05:19;4.47;;;0.38;;
51949;SDS011;37974;53.218;6.640;2022-07-03T11:26:34;2.92;;;0.50;;
51949;SDS011;37974;53.218;6.640;2022-07-03T11:29:06;2.85;;;0.40;;
51949;SDS011;37974;53.218;6.640;2022-07-03T11:31:56;5.78;;;0.68;;
51949;SDS011;37974;53.218;6.640;2022-07-03T11:34:22;4.65;;;0.60;;
51949;SDS011;37974;53.218;6.640;2022-07-03T11:36:50;1.35;;;0.30;;
51949;SDS011;37974;53.218;6.640;2022-07-03T11:39:25;3.17;;;0.50;;
51949;SDS011;37974;53.218;6.640;2022-07-03T11:41:54;4.65;;;0.55;;
51949;SDS011;37974;53.218;6.640;2022-07-03T11:44:46;3.28;;;0.38;;
51949;SDS011;37974;53.218;6.640;2022-07-03T11:47:22;3.78;;;0.55;;
51949;SDS011;37974;53.218;6.640;2022-07-03T11:49:48;4.18;;;0.63;;
51949;SDS011;37974;53.218;6.640;2022-07-03T11:52:31;3.17;;;0.60;;
51949;SDS011;37974;53.218;6.640;2022-07-03T11:55:19;3.88;;;1.10;;
51949;SDS011;37974;53.218;6.640;2022-07-03T11:58:08;6.20;;;0.93;;
51949;SDS011;37974;53.218;6.640;2022-07-03T12:00:43;3.50;;;0.82;;
51949;SDS011;37974;53.218;6.640;2022-07-03T12:03:15;3.88;;;0.80;;
51949;SDS011;37974;53.218;6.640;2022-07-03T12:05:50;7.05;;;1.00;;
51949;SDS011;37974;53.218;6.640;2022-07-03T12:08:22;7.57;;;1.67;;
51949;SDS011;37974;53.218;6.640;2022-07-03T12:10:50;9.48;;;1.58;;
51949;SDS011;37974;53.218;6.640;2022-07-03T12:13:35;8.48;;;1.35;;
51949;SDS011;37974;53.218;6.640;2022-07-03T12:16:13;5.80;;;1.38;;
51949;SDS011;37974;53.218;6.640;2022-07-03T12:18:40;8.02;;;1.40;;
51949;SDS011;37974;53.218;6.640;2022-07-03T12:21:31;6.50;;;0.90;;
51949;SDS011;37974;53.218;6.640;2022-07-03T12:24:24;3.55;;;0.70;;
51949;SDS011;37974;53.218;6.640;2022-07-03T12:26:53;6.05;;;0.82;;
51949;SDS011;37974;53.218;6.640;2022-07-03T12:32:33;5.82;;;1.10;;
51949;SDS011;37974;53.218;6.640;2022-07-03T12:35:10;5.55;;;0.95;;
51949;SDS011;37974;53.218;6.640;2022-07-03T12:37:36;3.90;;;0.85;;
51949;SDS011;37974;53.218;6.640;2022-07-03T12:40:07;4.88;;;0.90;;
51949;SDS011;37974;53.218;6.640;2022-07-03T12:42:42;5.10;;;1.00;;
51949;SDS011;37974;53.218;6.640;2022-07-03T12:45:15;5.43;;;0.85;;
51949;SDS011;37974;53.218;6.640;2022-07-03T12:47:57;7.88;;;1.20;;
51949;SDS011;37974;53.218;6.640;2022-07-03T12:50:45;5.97;;;1.00;;
51949;SDS011;37974;53.218;6.640;2022-07-03T12:56:10;6.50;;;0.80;;
51949;SDS011;37974;53.218;6.640;2022-07-03T12:58:46;4.82;;;0.88;;
51949;SDS011;37974;53.218;6.640;2022-07-03T13:02:02;6.50;;;1.17;;
51949;SDS011;37974;53.218;6.640;2022-07-03T13:04:36;4.05;;;0.60;;
51949;SDS011;37974;53.218;6.640;2022-07-03T13:07:04;5.25;;;0.63;;
51949;SDS011;37974;53.218;6.640;2022-07-03T13:09:31;4.43;;;0.70;;
51949;SDS011;37974;53.218;6.640;2022-07-03T13:12:07;5.72;;;1.08;;
51949;SDS011;37974;53.218;6.640;2022-07-03T13:14:33;5.20;;;0.75;;
51949;SDS011;37974;53.218;6.640;2022-07-03T13:17:05;3.72;;;0.80;;
51949;SDS011;37974;53.218;6.640;2022-07-03T13:19:31;5.80;;;1.02;;
51949;SDS011;37974;53.218;6.640;2022-07-03T13:22:03;3.90;;;0.82;;
51949;SDS011;37974;53.218;6.640;2022-07-03T13:25:30;5.53;;;0.90;;
51949;SDS011;37974;53.218;6.640;2022-07-03T13:28:02;5.68;;;0.90;;
51949;SDS011;37974;53.218;6.640;2022-07-03T13:30:30;4.82;;;0.85;;
51949;SDS011;37974;53.218;6.640;2022-07-03T13:36:05;3.80;;;0.98;;
51949;SDS011;37974;53.218;6.640;2022-07-03T13:38:37;7.47;;;0.90;;
51949;SDS011;37974;53.218;6.640;2022-07-03T13:41:03;6.60;;;1.07;;
51949;SDS011;37974;53.218;6.640;2022-07-03T13:43:37;3.63;;;0.80;;
51949;SDS011;37974;53.218;6.640;2022-07-03T13:46:03;5.73;;;1.10;;
51949;SDS011;37974;53.218;6.640;2022-07-03T13:48:38;7.63;;;1.00;;
51949;SDS011;37974;53.218;6.640;2022-07-03T13:51:04;3.55;;;1.15;;
51949;SDS011;37974;53.218;6.640;2022-07-03T13:53:33;3.22;;;0.70;;
51949;SDS011;37974;53.218;6.640;2022-07-03T13:56:04;6.03;;;0.90;;
51949;SDS011;37974;53.218;6.640;2022-07-03T13:58:33;4.03;;;1.00;;
51949;SDS011;37974;53.218;6.640;2022-07-03T14:00:59;6.90;;;1.05;;
51949;SDS011;37974;53.218;6.640;2022-07-03T14:03:35;6.30;;;1.08;;
51949;SDS011;37974;53.218;6.640;2022-07-03T14:06:09;5.15;;;0.82;;
51949;SDS011;37974;53.218;6.640;2022-07-03T14:08:40;5.88;;;1.00;;
51949;SDS011;37974;53.218;6.640;2022-07-03T14:14:03;5.75;;;1.42;;
51949;SDS011;37974;53.218;6.640;2022-07-03T14:16:29;10.10;;;1.42;;
51949;SDS011;37974;53.218;6.640;2022-07-03T14:22:12;23.42;;;2.38;;
51949;SDS011;37974;53.218;6.640;2022-07-03T14:24:45;19.58;;;3.65;;
51949;SDS011;37974;53.218;6.640;2022-07-03T15:18:24;5.50;;;1.95;;
51949;SDS011;37974;53.218;6.640;2022-07-03T15:21:22;5.20;;;2.15;;
51949;SDS011;37974;53.218;6.640;2022-07-03T15:24:56;5.22;;;1.75;;
51949;SDS011;37974;53.218;6.640;2022-07-03T16:40:19;5.57;;;1.50;;
51949;SDS011;37974;53.218;6.640;2022-07-03T16:42:54;4.85;;;1.45;;
51949;SDS011;37974;53.218;6.640;2022-07-03T16:45:39;10.35;;;3.13;;
51949;SDS011;37974;53.218;6.640;2022-07-03T16:48:08;8.10;;;2.30;;
51949;SDS011;37974;53.218;6.640;2022-07-03T16:50:40;4.07;;;1.10;;
51949;SDS011;37974;53.218;6.640;2022-07-03T16:53:26;6.40;;;1.35;;
51949;SDS011;37974;53.218;6.640;2022-07-03T17:11:26;9.10;;;2.67;;
51949;SDS011;37974;53.218;6.640;2022-07-03T17:14:14;9.98;;;5.55;;
51949;SDS011;37974;53.218;6.640;2022-07-03T17:16:42;6.97;;;2.40;;
51949;SDS011;37974;53.218;6.640;2022-07-03T17:19:21;4.65;;;1.55;;
51949;SDS011;37974;53.218;6.640;2022-07-03T17:21:52;6.20;;;2.95;;
51949;SDS011;37974;53.218;6.640;2022-07-03T17:24:27;7.97;;;2.60;;
51949;SDS011;37974;53.218;6.640;2022-07-03T17:26:56;8.67;;;2.00;;
51949;SDS011;37974;53.218;6.640;2022-07-03T17:29:33;13.05;;;6.93;;
51949;SDS011;37974;53.218;6.640;2022-07-03T17:32:12;12.38;;;4.72;;
51949;SDS011;37974;53.218;6.640;2022-07-03T17:34:43;6.95;;;2.63;;
51949;SDS011;37974;53.218;6.640;2022-07-03T17:37:14;6.03;;;2.08;;
51949;SDS011;37974;53.218;6.640;2022-07-03T17:39:44;8.43;;;2.92;;
51949;SDS011;37974;53.218;6.640;2022-07-03T17:42:13;8.45;;;3.15;;
51949;SDS011;37974;53.218;6.640;2022-07-03T17:44:40;6.25;;;3.28;;
51949;SDS011;37974;53.218;6.640;2022-07-03T17:47:11;3.63;;;1.80;;
51949;SDS011;37974;53.218;6.640;2022-07-03T17:49:42;7.80;;;2.03;;
51949;SDS011;37974;53.218;6.640;2022-07-03T17:52:13;5.25;;;1.70;;
51949;SDS011;37974;53.218;6.640;2022-07-03T18:55:22;8.27;;;3.30;;
